Time;durP1;ratioP1;P1;durP2;ratioP2;P2;SDS_P1;SDS_P2;PMS_P1;PMS_P2;Temp;Humidity;BMP_temperature;BMP_pressure;BME280_temperature;BME280_humidity;BME280_pressure;Samples;Min_cycle;Max_cycle;Signal;HPM_P1;HPM_P2
2022/08/27 00:02:24;;;;;;;3.65;3.05;;;24.40;58.20;;;;;;5024784;28;20021;-58
2022/08/27 00:04:49;;;;;;;4.72;2.92;;;24.40;58.20;;;;;;5054795;28;20063;-58
2022/08/27 00:07:16;;;;;;;3.90;2.85;;;24.40;58.20;;;;;;5055127;28;20426;-58
2022/08/27 00:09:41;;;;;;;3.47;2.80;;;24.40;58.20;;;;;;5049902;28;20412;-58
2022/08/27 00:12:09;;;;;;;5.10;2.78;;;24.40;58.20;;;;;;5053377;28;20024;-57
2022/08/27 00:14:38;;;;;;;3.40;2.90;;;24.40;58.20;;;;;;5043822;28;20425;-57
2022/08/27 00:17:05;;;;;;;4.53;2.40;;;24.40;58.20;;;;;;5053617;28;20021;-58
2022/08/27 00:19:31;;;;;;;4.55;3.00;;;24.40;58.10;;;;;;5048396;28;20021;-58
2022/08/27 00:21:56;;;;;;;5.75;2.75;;;24.40;58.10;;;;;;5055424;28;20032;-59
2022/08/27 00:24:22;;;;;;;3.35;2.60;;;24.40;58.10;;;;;;5054703;28;20053;-58
2022/08/27 00:26:49;;;;;;;3.72;2.72;;;24.40;58.20;;;;;;5055615;28;20091;-58
2022/08/27 00:29:16;;;;;;;4.47;2.78;;;24.40;58.30;;;;;;5056856;28;20362;-60
2022/08/27 00:31:41;;;;;;;4.13;2.60;;;24.40;58.40;;;;;;5054678;28;20110;-59
2022/08/27 00:34:07;;;;;;;3.40;2.65;;;24.40;58.40;;;;;;5054716;28;20480;-58
2022/08/27 00:36:33;;;;;;;2.70;2.47;;;24.40;58.50;;;;;;5054384;28;20131;-59
2022/08/27 00:38:59;;;;;;;3.60;2.70;;;24.40;58.50;;;;;;5053579;28;20039;-58
2022/08/27 00:41:24;;;;;;;2.20;2.00;;;24.50;58.70;;;;;;5054515;28;20025;-59
2022/08/27 00:43:56;;;;;;;3.53;2.50;;;24.40;58.70;;;;;;5052759;28;20423;-57
2022/08/27 00:46:43;;;;;;;3.15;2.53;;;24.50;58.80;;;;;;5052860;28;20017;-59
2022/08/27 00:49:40;;;;;;;3.78;2.47;;;24.50;58.80;;;;;;5029871;28;20029;-60
2022/08/27 00:52:24;;;;;;;2.47;2.20;;;24.50;58.90;;;;;;5054027;28;20025;-58
2022/08/27 00:54:55;;;;;;;3.63;2.45;;;24.50;59.00;;;;;;5049799;28;20028;-58
2022/08/27 00:57:21;;;;;;;4.15;2.45;;;24.50;59.20;;;;;;5046614;28;20116;-62
2022/08/27 00:59:47;;;;;;;3.08;2.30;;;24.50;59.20;;;;;;5036397;28;20107;-58
2022/08/27 01:02:19;;;;;;;2.28;1.95;;;24.50;59.30;;;;;;5054619;28;20104;-58
2022/08/27 01:05:00;;;;;;;4.40;2.40;;;24.50;59.40;;;;;;5053399;28;20053;-57
2022/08/27 01:07:26;;;;;;;;;;;24.50;59.10;;;;;;5054079;28;20100;-59
2022/08/27 01:09:53;;;;;;;2.72;1.85;;;24.50;59.20;;;;;;5045398;28;19909;-60
2022/08/27 01:12:20;;;;;;;2.60;2.20;;;24.50;59.10;;;;;;5050959;28;20472;-57
2022/08/27 01:14:46;;;;;;;3.15;1.88;;;24.50;59.20;;;;;;5051954;28;20491;-58
2022/08/27 01:17:13;;;;;;;2.22;2.03;;;24.50;59.10;;;;;;5054007;28;20052;-59
2022/08/27 01:19:50;;;;;;;1.95;1.77;;;24.50;59.10;;;;;;5062067;28;20599;-58
2022/08/27 01:22:25;;;;;;;2.97;2.30;;;24.50;59.50;;;;;;5051987;28;20026;-58
2022/08/27 01:24:55;;;;;;;2.00;1.80;;;24.50;59.50;;;;;;5052559;28;20111;-58
2022/08/27 01:27:25;;;;;;;2.30;2.10;;;24.50;59.50;;;;;;5054448;28;20025;-61
2022/08/27 01:29:50;;;;;;;2.65;2.28;;;24.50;59.30;;;;;;5053128;28;20071;-58
2022/08/27 01:32:23;;;;;;;2.15;1.85;;;24.50;59.60;;;;;;5053418;28;20056;-58
2022/08/27 01:34:49;;;;;;;2.38;1.95;;;24.50;59.30;;;;;;5050657;28;20084;-57
2022/08/27 01:37:17;;;;;;;2.83;1.67;;;24.50;59.20;;;;;;5051535;28;20031;-58
2022/08/27 01:39:43;;;;;;;2.85;2.33;;;24.50;59.30;;;;;;5040311;28;20083;-57
2022/08/27 01:42:14;;;;;;;2.53;2.20;;;24.40;59.20;;;;;;5053952;28;20484;-57
2022/08/27 01:44:42;;;;;;;;;;;24.40;59.10;;;;;;5051094;28;20143;-57
2022/08/27 01:47:08;;;;;;;3.40;1.83;;;24.40;59.30;;;;;;5053251;28;19967;-57
2022/08/27 01:49:33;;;;;;;2.60;2.10;;;24.40;59.20;;;;;;5052816;28;20028;-57
2022/08/27 01:51:59;;;;;;;2.55;2.13;;;24.30;59.20;;;;;;5053176;28;20096;-57
2022/08/27 01:54:25;;;;;;;2.85;2.10;;;24.30;59.20;;;;;;5044036;28;20040;-58
2022/08/27 01:56:50;;;;;;;3.22;2.13;;;24.30;59.20;;;;;;5052752;28;20082;-56
2022/08/27 01:59:16;;;;;;;3.47;2.40;;;24.30;59.30;;;;;;5050903;28;20035;-57
2022/08/27 02:01:42;;;;;;;2.03;1.83;;;24.30;59.60;;;;;;5046208;28;20201;-58
2022/08/27 02:04:08;;;;;;;3.13;2.45;;;24.30;59.80;;;;;;5051123;28;20040;-57
2022/08/27 02:06:33;;;;;;;2.53;2.30;;;24.30;59.80;;;;;;5034543;28;20393;-60
2022/08/27 02:08:59;;;;;;;2.35;2.15;;;24.30;59.90;;;;;;5052807;28;20025;-57
2022/08/27 02:11:25;;;;;;;2.72;2.35;;;24.30;59.70;;;;;;5048849;28;20028;-59
2022/08/27 02:13:51;;;;;;;3.63;2.25;;;24.30;59.50;;;;;;5052406;28;20035;-58
2022/08/27 02:16:16;;;;;;;2.97;2.30;;;24.20;59.50;;;;;;5051714;28;20104;-58
2022/08/27 02:18:42;;;;;;;3.20;2.20;;;24.20;59.60;;;;;;5056928;28;20551;-57
2022/08/27 02:21:08;;;;;;;3.42;2.28;;;24.10;59.60;;;;;;5052832;28;20033;-58
2022/08/27 02:23:34;;;;;;;2.60;2.05;;;24.10;59.60;;;;;;5050546;28;20021;-57
2022/08/27 02:25:59;;;;;;;4.03;2.45;;;24.10;59.50;;;;;;5051775;28;20245;-57
2022/08/27 02:28:25;;;;;;;4.13;2.60;;;24.20;59.40;;;;;;5055766;28;20025;-58
2022/08/27 02:30:50;;;;;;;3.45;2.53;;;24.10;59.30;;;;;;5047427;28;20100;-59
2022/08/27 02:33:16;;;;;;;4.20;2.88;;;24.10;59.30;;;;;;5052510;28;20024;-57
2022/08/27 02:35:43;;;;;;;3.50;2.78;;;24.10;59.10;;;;;;5051564;28;20099;-57
2022/08/27 02:38:09;;;;;;;2.97;2.53;;;24.10;58.90;;;;;;5052742;28;20374;-57
2022/08/27 02:40:36;;;;;;;2.47;2.20;;;24.10;58.80;;;;;;5052407;28;20021;-57
2022/08/27 02:43:02;;;;;;;3.88;2.40;;;24.10;58.90;;;;;;5049299;28;20032;-56
2022/08/27 02:45:27;;;;;;;3.60;2.60;;;24.00;58.80;;;;;;5051462;28;20044;-57
2022/08/27 02:47:53;;;;;;;3.47;2.50;;;24.00;59.00;;;;;;5050878;28;20392;-58
2022/08/27 02:50:19;;;;;;;3.05;2.47;;;24.00;59.00;;;;;;5051819;28;20048;-57
2022/08/27 02:52:45;;;;;;;4.63;2.92;;;24.00;59.10;;;;;;5040074;28;20017;-59
2022/08/27 02:55:11;;;;;;;3.33;2.50;;;24.00;59.10;;;;;;5051546;28;20376;-59
2022/08/27 02:57:37;;;;;;;4.07;2.60;;;24.10;59.20;;;;;;5052510;28;20025;-57
2022/08/27 03:00:08;;;;;;;2.38;2.17;;;24.00;59.10;;;;;;5051974;28;20029;-57
2022/08/27 03:02:35;;;;;;;3.47;2.28;;;24.00;59.10;;;;;;5051749;28;20040;-59
2022/08/27 03:05:01;;;;;;;3.25;2.75;;;24.00;58.80;;;;;;5023451;28;20029;-59
2022/08/27 03:07:26;;;;;;;4.15;2.40;;;24.10;58.80;;;;;;5050380;28;20387;-58
2022/08/27 03:09:52;;;;;;;4.00;2.50;;;24.00;58.60;;;;;;5050217;28;20051;-58
2022/08/27 03:12:18;;;;;;;2.75;2.30;;;24.00;58.50;;;;;;5048338;28;20033;-59
2022/08/27 03:14:44;;;;;;;2.97;2.67;;;24.00;58.40;;;;;;5050281;28;20414;-58
2022/08/27 03:19:54;;;;;;;2.60;2.30;;;24.00;58.50;;;;;;5047844;28;20392;-57
2022/08/27 03:22:20;;;;;;;3.78;2.40;;;24.10;58.70;;;;;;5052208;28;20036;-58
2022/08/27 03:24:46;;;;;;;2.53;2.22;;;24.10;58.80;;;;;;5050139;28;20056;-57
2022/08/27 03:27:11;;;;;;;3.10;2.50;;;24.10;58.60;;;;;;5044193;28;20037;-58
2022/08/27 03:29:37;;;;;;;2.88;2.25;;;24.10;58.50;;;;;;5052092;28;20021;-57
2022/08/27 03:32:05;;;;;;;4.28;2.75;;;24.10;59.20;;;;;;5048993;28;20024;-58
2022/08/27 03:34:31;;;;;;;3.63;2.33;;;24.10;58.80;;;;;;5050227;28;20497;-57
2022/08/27 03:36:59;;;;;;;3.03;2.50;;;24.10;58.80;;;;;;5051211;28;20055;-57
2022/08/27 03:39:24;;;;;;;3.47;2.10;;;24.10;58.90;;;;;;5048960;28;20036;-58
2022/08/27 03:41:50;;;;;;;2.60;2.40;;;24.10;58.80;;;;;;5051426;28;20380;-58
2022/08/27 03:44:16;;;;;;;3.10;2.60;;;24.10;58.80;;;;;;5047888;28;20074;-61
2022/08/27 03:46:42;;;;;;;2.92;2.42;;;24.10;58.90;;;;;;5047077;28;20033;-58
2022/08/27 03:49:08;;;;;;;2.22;2.03;;;24.10;59.10;;;;;;5050985;28;20036;-58
2022/08/27 03:51:33;;;;;;;3.45;2.35;;;24.10;59.10;;;;;;5049044;28;20037;-58
2022/08/27 03:53:59;;;;;;;3.05;2.40;;;24.00;59.20;;;;;;5050715;28;20041;-58
2022/08/27 03:56:25;;;;;;;3.85;2.60;;;24.00;59.10;;;;;;5051407;28;20374;-57
2022/08/27 03:58:50;;;;;;;2.42;2.22;;;24.00;59.10;;;;;;5048054;28;20037;-59
2022/08/27 04:01:16;;;;;;;2.90;2.58;;;24.00;59.00;;;;;;5042689;28;20021;-58
2022/08/27 04:03:42;;;;;;;3.47;2.28;;;24.00;59.00;;;;;;5050089;28;20428;-60
2022/08/27 04:06:08;;;;;;;3.08;2.42;;;24.00;59.00;;;;;;5053988;28;20029;-58
2022/08/27 04:08:34;;;;;;;3.50;2.58;;;24.00;59.10;;;;;;5049375;28;20485;-59
2022/08/27 04:11:03;;;;;;;2.88;2.30;;;24.00;59.30;;;;;;5051642;28;20064;-59
2022/08/27 04:13:29;;;;;;;2.60;2.40;;;24.00;59.20;;;;;;5050811;28;20017;-62
2022/08/27 04:15:55;;;;;;;2.70;2.47;;;24.00;59.20;;;;;;5051101;28;20025;-58
2022/08/27 04:18:20;;;;;;;3.20;2.40;;;24.00;59.10;;;;;;5051612;28;20492;-57
2022/08/27 04:20:48;;;;;;;3.72;2.40;;;24.10;59.10;;;;;;5048899;28;20028;-58
2022/08/27 04:23:14;;;;;;;3.38;2.53;;;24.10;58.70;;;;;;5050962;28;20087;-57
2022/08/27 04:25:41;;;;;;;3.28;2.50;;;24.10;58.50;;;;;;5051234;28;20115;-57
2022/08/27 04:28:08;;;;;;;3.17;2.58;;;24.20;58.20;;;;;;5054019;28;20043;-57
2022/08/27 04:30:38;;;;;;;3.42;2.80;;;24.20;58.10;;;;;;5051474;28;20060;-58
2022/08/27 04:33:04;;;;;;;4.10;2.25;;;24.30;58.10;;;;;;5050874;28;20013;-57
2022/08/27 04:35:30;;;;;;;3.63;2.50;;;24.40;58.20;;;;;;5050099;28;20099;-57
2022/08/27 04:37:56;;;;;;;2.63;2.15;;;24.50;58.40;;;;;;5050663;28;20029;-58
2022/08/27 04:41:18;;;;;;;5.25;2.90;;;24.60;58.30;;;;;;5051166;28;20029;-57
2022/08/27 04:43:07;;;;;;;3.05;2.75;;;24.70;58.10;;;;;;5050163;28;20036;-58
2022/08/27 04:45:40;;;;;;;4.72;2.97;;;24.90;57.80;;;;;;5049968;28;20113;-58
2022/08/27 04:48:06;;;;;;;4.00;2.88;;;25.10;57.90;;;;;;5037491;28;20020;-57
2022/08/27 04:50:32;;;;;;;3.75;2.95;;;25.20;57.60;;;;;;5049494;28;20095;-61
2022/08/27 04:52:57;;;;;;;2.90;2.60;;;25.40;57.20;;;;;;5052182;28;20025;-60
2022/08/27 04:55:23;;;;;;;3.08;2.78;;;25.50;57.10;;;;;;5049622;28;20028;-57
2022/08/27 04:57:48;;;;;;;3.60;2.67;;;25.60;56.90;;;;;;5058400;28;20392;-58
2022/08/27 05:00:15;;;;;;;3.47;2.60;;;25.70;57.00;;;;;;5041456;28;20037;-61
2022/08/27 05:02:40;;;;;;;3.83;2.83;;;25.80;56.80;;;;;;5051187;28;20121;-58
2022/08/27 05:05:06;;;;;;;3.65;2.90;;;25.80;57.30;;;;;;5048043;28;20064;-57
2022/08/27 05:07:32;;;;;;;2.83;2.42;;;25.90;56.60;;;;;;5051344;28;20075;-57
2022/08/27 05:09:57;;;;;;;3.05;2.50;;;25.90;56.70;;;;;;5052935;28;20036;-61
2022/08/27 05:12:23;;;;;;;3.28;2.38;;;26.00;56.50;;;;;;5053016;28;20031;-61
2022/08/27 05:14:48;;;;;;;4.72;3.00;;;26.10;56.50;;;;;;5051538;28;20387;-62
2022/08/27 05:17:14;;;;;;;3.38;3.05;;;26.10;56.30;;;;;;5052569;28;20021;-58
2022/08/27 05:19:40;;;;;;;5.35;3.17;;;26.20;56.30;;;;;;5050291;28;20060;-58
2022/08/27 05:22:06;;;;;;;3.03;2.72;;;26.40;56.40;;;;;;5045039;28;20393;-60
2022/08/27 05:24:32;;;;;;;4.03;3.00;;;26.50;56.20;;;;;;5046068;28;20044;-61
2022/08/27 05:26:58;;;;;;;4.28;3.00;;;26.70;55.80;;;;;;5052438;28;20033;-57
2022/08/27 05:29:23;;;;;;;4.15;3.15;;;26.80;55.40;;;;;;5055515;28;20029;-61
2022/08/27 05:31:49;;;;;;;4.40;2.90;;;26.90;55.20;;;;;;5053546;28;20499;-60
2022/08/27 05:34:15;;;;;;;3.22;2.92;;;27.00;54.90;;;;;;5053162;28;20021;-57
2022/08/27 05:36:41;;;;;;;4.05;2.80;;;27.00;54.70;;;;;;5050900;28;20048;-57
2022/08/27 05:39:08;;;;;;;5.30;3.50;;;27.00;54.70;;;;;;5047629;28;20032;-58
2022/08/27 05:41:35;;;;;;;4.72;3.30;;;27.00;54.40;;;;;;5050687;28;20059;-61
2022/08/27 05:44:04;;;;;;;5.13;3.45;;;27.10;54.20;;;;;;5050613;28;20588;-61
2022/08/27 05:46:30;;;;;;;4.83;3.17;;;27.10;53.70;;;;;;5029080;28;20117;-61
2022/08/27 05:48:57;;;;;;;5.22;3.40;;;27.10;53.40;;;;;;5052953;28;20347;-60
2022/08/27 05:51:32;;;;;;;5.93;3.40;;;27.10;53.40;;;;;;5048449;28;20437;-60
2022/08/27 05:54:09;;;;;;;5.82;3.50;;;27.10;53.30;;;;;;5049553;28;20032;-59
2022/08/27 05:56:37;;;;;;;5.65;3.70;;;27.10;53.10;;;;;;5055447;28;20024;-60
2022/08/27 06:01:49;;;;;;;5.95;3.53;;;27.00;52.80;;;;;;5047669;28;20031;-58
2022/08/27 06:04:16;;;;;;;3.75;3.17;;;27.00;52.80;;;;;;5050810;28;20032;-61
2022/08/27 06:06:43;;;;;;;4.35;2.80;;;27.00;52.70;;;;;;5046801;28;20025;-61
2022/08/27 06:09:13;;;;;;;4.53;3.28;;;26.90;52.50;;;;;;5053109;28;20116;-60
2022/08/27 06:11:39;;;;;;;4.68;3.38;;;26.90;52.60;;;;;;5052433;28;20435;-58
2022/08/27 06:14:05;;;;;;;4.18;3.17;;;26.80;52.50;;;;;;5052075;28;20083;-59
2022/08/27 06:16:31;;;;;;;5.90;3.30;;;26.80;52.60;;;;;;5042902;28;20104;-60
2022/08/27 06:18:57;;;;;;;4.00;3.05;;;26.80;52.70;;;;;;5050358;28;20021;-58
2022/08/27 06:21:24;;;;;;;4.78;3.40;;;26.80;52.80;;;;;;5052942;28;20397;-61
2022/08/27 06:23:51;;;;;;;4.35;3.47;;;26.70;52.80;;;;;;5052013;28;20033;-63
2022/08/27 06:26:19;;;;;;;6.93;3.30;;;26.60;52.90;;;;;;5051268;28;20029;-61
2022/08/27 06:28:45;;;;;;;4.78;3.15;;;26.50;52.90;;;;;;5055757;28;20358;-58
2022/08/27 06:31:15;;;;;;;5.28;3.28;;;26.50;53.10;;;;;;5053023;28;20032;-59
2022/08/27 06:33:42;;;;;;;3.77;3.00;;;26.40;53.00;;;;;;5052071;28;20386;-61
2022/08/27 06:36:11;;;;;;;5.43;3.10;;;26.50;53.40;;;;;;5050933;28;20041;-61
2022/08/27 06:38:37;;;;;;;4.25;3.28;;;26.50;52.90;;;;;;5051094;28;20029;-61
2022/08/27 06:41:05;;;;;;;5.05;3.30;;;26.50;53.00;;;;;;5050300;28;20108;-61
2022/08/27 06:43:34;;;;;;;3.95;3.50;;;26.60;53.30;;;;;;5051973;28;20033;-60
2022/08/27 06:46:02;;;;;;;5.85;3.30;;;26.60;53.20;;;;;;5044677;28;20388;-62
2022/08/27 06:48:28;;;;;;;4.50;3.53;;;26.70;53.00;;;;;;5044440;28;20409;-60
2022/08/27 06:50:54;;;;;;;4.95;3.47;;;26.70;52.90;;;;;;5051799;28;20032;-60
2022/08/27 06:53:20;;;;;;;4.35;3.10;;;26.70;53.00;;;;;;5052752;28;20029;-60
2022/08/27 06:55:47;;;;;;;3.78;3.00;;;26.80;53.10;;;;;;5049371;28;20036;-63
2022/08/27 06:58:15;;;;;;;3.92;3.17;;;26.70;53.00;;;;;;5052548;28;20048;-61
2022/08/27 07:00:41;;;;;;;5.10;3.60;;;26.80;53.10;;;;;;5049893;28;20028;-61
2022/08/27 07:03:07;;;;;;;4.47;3.30;;;26.80;53.20;;;;;;5049951;28;20052;-61
2022/08/27 07:05:35;;;;;;;4.97;3.38;;;26.70;53.20;;;;;;5048374;28;20048;-62
2022/08/27 07:08:01;;;;;;;5.22;3.25;;;26.70;53.20;;;;;;5050352;28;20063;-61
2022/08/27 07:10:27;;;;;;;4.53;3.30;;;26.70;53.40;;;;;;5031844;28;20036;-60
2022/08/27 07:12:53;;;;;;;6.68;3.38;;;26.70;53.40;;;;;;5050560;28;20052;-61
2022/08/27 07:15:19;;;;;;;4.80;3.33;;;26.70;53.90;;;;;;5050592;28;20071;-62
2022/08/27 07:17:44;;;;;;;5.60;3.55;;;26.70;54.10;;;;;;5051940;28;20028;-60
2022/08/27 07:20:14;;;;;;;3.50;2.80;;;26.70;54.10;;;;;;5051131;28;20102;-60
2022/08/27 07:22:42;;;;;;;4.10;3.00;;;26.70;54.30;;;;;;5051992;28;20051;-61
2022/08/27 07:25:11;;;;;;;3.30;2.90;;;26.70;54.40;;;;;;5050108;28;20500;-61
2022/08/27 07:27:38;;;;;;;4.28;2.88;;;26.70;54.50;;;;;;5053172;28;20529;-62
2022/08/27 07:30:05;;;;;;;7.55;3.47;;;26.70;54.50;;;;;;5050836;28;20365;-62
2022/08/27 07:32:30;;;;;;;4.32;3.05;;;26.70;54.40;;;;;;5047651;28;20092;-61
2022/08/27 07:34:56;;;;;;;3.85;2.90;;;26.80;54.90;;;;;;5050717;28;20120;-60
2022/08/27 07:37:22;;;;;;;4.38;3.10;;;26.80;54.80;;;;;;5051147;28;20032;-62
2022/08/27 07:39:48;;;;;;;4.43;2.95;;;26.70;54.90;;;;;;5050221;28;20033;-61
2022/08/27 07:44:57;;;;;;;3.70;2.60;;;26.70;55.30;;;;;;5050861;28;20032;-61
2022/08/27 07:47:23;;;;;;;7.32;3.28;;;26.80;55.70;;;;;;5048639;28;21047;-60
2022/08/27 07:49:49;;;;;;;3.13;2.70;;;26.80;55.90;;;;;;5051693;28;20055;-60
2022/08/27 07:52:15;;;;;;;3.92;2.83;;;26.80;56.10;;;;;;5050299;28;20061;-61
2022/08/27 07:54:41;;;;;;;4.65;2.70;;;26.80;55.90;;;;;;5041890;28;20082;-61
2022/08/27 07:57:08;;;;;;;5.63;3.00;;;26.80;55.70;;;;;;5054107;28;20021;-60
2022/08/27 07:59:34;;;;;;;3.42;2.63;;;26.80;55.80;;;;;;5046482;28;20396;-59
2022/08/27 08:02:00;;;;;;;3.83;2.63;;;26.90;55.60;;;;;;5047617;28;20025;-59
2022/08/27 08:04:26;;;;;;;5.45;3.10;;;26.80;55.40;;;;;;5050956;28;20036;-61
2022/08/27 08:06:54;;;;;;;4.57;2.72;;;26.80;55.40;;;;;;5046739;28;20104;-61
2022/08/27 08:09:24;;;;;;;4.60;2.90;;;26.80;55.60;;;;;;5046163;28;20021;-60
2022/08/27 08:11:53;;;;;;;4.35;3.10;;;26.80;55.50;;;;;;5020367;28;20049;-62
2022/08/27 08:14:19;;;;;;;4.50;2.67;;;26.80;55.20;;;;;;5047758;28;20021;-60
2022/08/27 08:16:45;;;;;;;3.83;2.95;;;26.80;55.00;;;;;;5045124;28;20049;-61
2022/08/27 08:19:11;;;;;;;4.35;2.80;;;26.80;55.00;;;;;;5042348;28;20080;-61
2022/08/27 08:21:37;;;;;;;4.18;2.70;;;26.80;55.50;;;;;;5049268;28;20029;-61
2022/08/27 08:24:03;;;;;;;5.57;2.47;;;26.80;54.90;;;;;;5051998;28;20033;-62
2022/08/27 08:26:29;;;;;;;3.65;2.53;;;26.80;54.80;;;;;;5052983;28;20079;-62
2022/08/27 08:28:54;;;;;;;3.90;2.83;;;26.80;54.90;;;;;;5037155;28;20033;-62
2022/08/27 08:31:22;;;;;;;3.95;2.88;;;26.80;54.70;;;;;;5052651;28;20036;-60
2022/08/27 08:33:48;;;;;;;2.70;2.50;;;26.90;54.60;;;;;;5051822;28;20074;-61
2022/08/27 08:36:16;;;;;;;3.58;2.83;;;26.90;54.70;;;;;;5052383;28;20377;-61
2022/08/27 08:38:42;;;;;;;3.70;2.80;;;26.90;54.70;;;;;;5052570;28;20047;-60
2022/08/27 08:41:20;;;;;;;4.63;2.88;;;26.90;54.60;;;;;;5050661;28;20036;-62
2022/08/27 08:43:50;;;;;;;2.90;2.45;;;26.90;54.50;;;;;;5051513;28;20529;-59
2022/08/27 08:46:38;;;;;;;3.30;2.53;;;26.90;54.40;;;;;;5046291;28;20033;-59
2022/08/27 08:49:33;;;;;;;4.45;2.83;;;26.90;54.30;;;;;;5048054;28;20057;-60
2022/08/27 08:52:39;;;;;;;2.90;2.60;;;26.90;54.50;;;;;;5050169;28;20032;-61
2022/08/27 08:55:19;;;;;;;3.60;2.90;;;26.90;54.60;;;;;;5022191;28;20120;-62
2022/08/27 08:58:11;;;;;;;3.17;2.60;;;26.90;54.50;;;;;;5059404;28;20021;-57
2022/08/27 09:00:39;;;;;;;5.10;2.70;;;26.90;54.40;;;;;;5053037;28;20040;-59
2022/08/27 09:03:05;;;;;;;3.42;2.50;;;26.90;54.40;;;;;;5052921;28;20136;-58
2022/08/27 09:05:31;;;;;;;2.75;2.38;;;26.90;54.30;;;;;;5040082;28;20091;-60
2022/08/27 09:08:16;;;;;;;4.07;2.30;;;26.90;54.10;;;;;;5052355;28;20111;-57
2022/08/27 09:11:02;;;;;;;4.07;2.25;;;26.90;53.70;;;;;;5049476;28;20025;-59
2022/08/27 09:13:31;;;;;;;3.95;2.75;;;26.90;53.70;;;;;;5009095;28;20037;-56
2022/08/27 09:16:01;;;;;;;4.80;2.10;;;26.90;53.80;;;;;;5045742;28;20573;-58
2022/08/27 09:18:27;;;;;;;2.47;2.10;;;26.90;53.70;;;;;;5051901;28;20029;-57
2022/08/27 09:21:06;;;;;;;2.67;2.05;;;26.90;53.70;;;;;;5036011;28;20125;-57
2022/08/27 09:23:57;;;;;;;2.55;2.33;;;26.90;54.00;;;;;;5035718;28;20047;-57
2022/08/27 09:26:27;;;;;;;2.00;1.77;;;26.90;54.40;;;;;;5053057;28;20477;-57
2022/08/27 09:29:16;;;;;;;4.05;2.47;;;26.90;54.50;;;;;;5054511;28;20036;-58
2022/08/27 09:31:52;;;;;;;4.35;2.13;;;26.90;54.60;;;;;;5052358;28;20078;-58
2022/08/27 09:34:19;;;;;;;3.90;2.35;;;26.90;54.40;;;;;;5048783;28;20033;-57
2022/08/27 09:37:01;;;;;;;2.95;2.05;;;26.90;54.50;;;;;;5052750;28;20468;-58
2022/08/27 09:39:32;;;;;;;2.60;2.00;;;27.00;54.10;;;;;;5053884;28;20100;-60
2022/08/27 09:41:58;;;;;;;2.00;1.80;;;27.00;53.70;;;;;;5049438;28;20029;-59
2022/08/27 09:44:24;;;;;;;1.88;1.77;;;26.90;53.50;;;;;;5049021;28;20035;-58
2022/08/27 09:46:58;;;;;;;2.20;1.88;;;27.00;53.70;;;;;;5052949;28;20044;-57
2022/08/27 09:49:25;;;;;;;2.47;1.80;;;27.00;54.40;;;;;;5053649;28;20029;-59
2022/08/27 09:51:53;;;;;;;3.28;2.00;;;27.00;54.60;;;;;;5049525;28;20017;-58
2022/08/27 09:54:46;;;;;;;1.90;1.80;;;27.00;54.50;;;;;;5053606;28;20021;-57
2022/08/27 09:57:24;;;;;;;1.98;1.70;;;27.00;54.30;;;;;;5051622;28;20116;-57
2022/08/27 09:59:53;;;;;;;2.60;1.90;;;27.00;54.60;;;;;;5050630;28;20025;-57
2022/08/27 10:02:21;;;;;;;2.13;1.75;;;27.00;54.60;;;;;;5051150;28;20477;-57
2022/08/27 10:04:51;;;;;;;2.13;1.58;;;27.00;54.70;;;;;;5051274;28;20025;-58
2022/08/27 10:07:37;;;;;;;2.00;1.80;;;27.00;54.80;;;;;;5048996;28;20396;-57
2022/08/27 10:10:37;;;;;;;2.58;1.85;;;26.90;54.10;;;;;;5034440;28;20337;-58
2022/08/27 10:13:15;;;;;;;2.20;2.00;;;27.00;54.00;;;;;;5051018;28;20033;-59
2022/08/27 10:15:59;;;;;;;1.88;1.77;;;27.00;53.70;;;;;;5046743;28;20035;-60
2022/08/27 10:18:45;;;;;;;2.58;2.03;;;27.00;53.60;;;;;;5050739;28;20436;-58
2022/08/27 10:21:38;;;;;;;2.22;2.03;;;27.00;53.90;;;;;;5051206;28;20040;-58
2022/08/27 10:24:28;;;;;;;2.40;1.70;;;27.00;54.10;;;;;;5053017;28;20027;-59
2022/08/27 10:27:19;;;;;;;3.10;1.55;;;27.00;54.00;;;;;;5047537;28;20025;-59
2022/08/27 10:30:31;;;;;;;2.22;1.70;;;27.00;53.70;;;;;;5046883;28;20029;-61
2022/08/27 10:33:05;;;;;;;2.47;1.92;;;27.00;53.50;;;;;;4985866;28;20073;-56
2022/08/27 10:36:02;;;;;;;2.15;1.75;;;27.00;53.20;;;;;;5042456;28;20103;-57
2022/08/27 10:38:40;;;;;;;1.75;1.58;;;27.10;52.90;;;;;;5050536;28;20029;-57
2022/08/27 10:41:24;;;;;;;3.08;2.15;;;27.10;52.70;;;;;;5052180;28;20075;-57
2022/08/27 10:44:43;;;;;;;2.63;1.80;;;27.20;52.80;;;;;;5047773;28;20017;-58
2022/08/27 10:47:22;;;;;;;3.20;1.75;;;27.10;52.80;;;;;;4979898;28;20055;-57
2022/08/27 10:49:50;;;;;;;3.30;1.50;;;27.20;53.10;;;;;;5045765;28;20037;-61
2022/08/27 10:52:28;;;;;;;4.13;1.80;;;27.20;53.30;;;;;;5048667;28;20366;-57
2022/08/27 10:54:54;;;;;;;1.70;1.60;;;27.20;53.60;;;;;;5047656;28;20029;-58
2022/08/27 10:58:01;;;;;;;2.10;1.45;;;27.20;53.60;;;;;;5047485;28;20530;-57
2022/08/27 11:01:03;;;;;;;2.00;1.80;;;27.20;54.00;;;;;;5013844;28;20592;-59
2022/08/27 11:03:53;;;;;;;2.05;1.80;;;27.20;54.10;;;;;;5047852;28;20024;-59
2022/08/27 11:06:26;;;;;;;1.43;1.33;;;27.20;54.00;;;;;;5038529;28;20044;-58
2022/08/27 11:09:18;;;;;;;1.85;1.58;;;27.20;54.30;;;;;;5049554;28;20499;-59
2022/08/27 11:11:57;;;;;;;2.08;1.50;;;27.20;54.30;;;;;;5019206;28;20037;-59
2022/08/27 11:14:49;;;;;;;1.52;1.42;;;27.20;53.50;;;;;;5046601;28;20028;-57
2022/08/27 11:17:25;;;;;;;4.00;2.20;;;27.20;52.90;;;;;;5027088;28;20570;-57
2022/08/27 11:20:00;;;;;;;2.45;1.48;;;27.20;52.90;;;;;;5044329;28;20368;-60
2022/08/27 11:22:34;;;;;;;2.67;1.55;;;27.20;52.70;;;;;;5038618;28;20043;-58
2022/08/27 11:25:12;;;;;;;3.00;2.00;;;27.20;52.30;;;;;;5043358;28;20423;-58
2022/08/27 11:27:39;;;;;;;2.50;1.83;;;27.30;51.40;;;;;;5042188;28;20427;-58
2022/08/27 11:30:31;;;;;;;1.95;1.70;;;27.30;51.30;;;;;;5027522;28;20400;-58
2022/08/27 11:33:21;;;;;;;1.92;1.58;;;27.30;51.20;;;;;;5041654;28;20033;-62
2022/08/27 11:36:15;;;;;;;2.13;1.60;;;27.30;51.30;;;;;;5045191;28;20051;-58
2022/08/27 11:38:44;;;;;;;1.80;1.70;;;27.30;50.50;;;;;;5042151;28;20040;-57
2022/08/27 11:41:16;;;;;;;1.67;1.58;;;27.40;51.10;;;;;;5042201;28;20025;-56
2022/08/27 11:43:43;;;;;;;1.80;1.48;;;27.40;51.00;;;;;;5045891;28;20025;-59
2022/08/27 11:46:10;;;;;;;2.35;1.90;;;27.40;51.00;;;;;;5047079;28;20040;-58
2022/08/27 11:48:54;;;;;;;2.47;1.55;;;27.40;51.00;;;;;;5048510;28;20372;-57
2022/08/27 11:51:35;;;;;;;2.13;1.45;;;27.40;51.00;;;;;;5045595;28;20024;-59
2022/08/27 11:54:08;;;;;;;2.03;1.70;;;27.40;51.30;;;;;;5047103;28;20155;-57
2022/08/27 11:56:43;;;;;;;2.35;1.77;;;27.40;51.50;;;;;;5042053;28;20395;-58
2022/08/27 11:59:19;;;;;;;3.13;1.65;;;27.40;51.30;;;;;;5047496;28;20033;-59
2022/08/27 12:01:45;;;;;;;1.98;1.42;;;27.40;51.20;;;;;;5050095;28;20048;-58
2022/08/27 12:04:29;;;;;;;2.00;1.58;;;27.40;51.00;;;;;;5046520;28;20033;-58
2022/08/27 12:07:09;;;;;;;1.98;1.60;;;27.40;50.60;;;;;;5049189;28;20036;-57
2022/08/27 12:10:15;;;;;;;1.52;1.42;;;27.40;50.50;;;;;;5047826;28;20468;-58
2022/08/27 12:13:12;;;;;;;1.70;1.50;;;27.40;50.20;;;;;;5047617;28;20322;-58
2022/08/27 12:16:01;;;;;;;2.70;1.65;;;27.40;50.00;;;;;;5050644;28;20032;-59
2022/08/27 12:18:48;;;;;;;2.42;1.77;;;27.40;50.20;;;;;;5048249;28;20036;-57
2022/08/27 12:21:47;;;;;;;1.60;1.50;;;27.40;50.10;;;;;;5048486;28;20032;-57
2022/08/27 12:24:29;;;;;;;1.60;1.50;;;27.50;50.00;;;;;;5038414;28;20403;-57
2022/08/27 12:27:12;;;;;;;1.88;1.50;;;27.50;49.20;;;;;;5050193;28;20024;-57
2022/08/27 12:29:45;;;;;;;3.13;1.98;;;27.50;49.00;;;;;;5047732;28;20535;-58
2022/08/27 12:32:23;;;;;;;1.60;1.50;;;27.60;49.10;;;;;;5047816;28;20033;-58
2022/08/27 12:35:10;;;;;;;1.73;1.60;;;27.60;49.00;;;;;;5050126;28;20029;-57
2022/08/27 12:37:58;;;;;;;2.63;1.60;;;27.70;48.50;;;;;;5049969;28;20100;-59
2022/08/27 12:40:27;;;;;;;1.95;1.75;;;27.70;48.60;;;;;;5025805;28;20037;-59
2022/08/27 12:43:13;;;;;;;4.97;1.73;;;27.70;48.40;;;;;;5051136;28;20025;-58
2022/08/27 12:45:46;;;;;;;3.45;1.63;;;27.70;48.10;;;;;;5045526;28;20557;-58
2022/08/27 12:48:13;;;;;;;3.17;1.45;;;27.70;48.00;;;;;;5048360;28;20017;-58
2022/08/27 12:50:39;;;;;;;2.95;1.38;;;27.70;48.10;;;;;;5051557;28;20063;-60
2022/08/27 12:53:13;;;;;;;2.42;1.67;;;27.70;47.50;;;;;;5048614;28;20025;-61
2022/08/27 12:55:42;;;;;;;1.73;1.40;;;27.70;47.30;;;;;;5047930;28;20115;-59
2022/08/27 12:58:22;;;;;;;1.15;1.08;;;27.70;47.30;;;;;;5047062;28;20057;-57
2022/08/27 13:01:07;;;;;;;;;;;27.80;47.20;;;;;;5048892;28;20021;-59
2022/08/27 13:03:42;;;;;;;4.07;1.70;;;27.70;47.00;;;;;;5043572;28;19948;-58
2022/08/27 13:06:29;;;;;;;3.00;1.92;;;27.70;47.50;;;;;;5048855;28;20477;-58
2022/08/27 13:09:06;;;;;;;2.47;1.45;;;27.80;47.40;;;;;;5048967;28;20074;-60
2022/08/27 13:11:42;;;;;;;2.20;1.70;;;27.80;47.30;;;;;;5047381;28;20028;-59
2022/08/27 13:14:15;;;;;;;1.60;1.48;;;27.80;46.80;;;;;;5045628;28;20210;-57
2022/08/27 13:16:52;;;;;;;1.90;1.58;;;27.80;45.90;;;;;;5048423;28;20013;-58
2022/08/27 13:19:34;;;;;;;2.55;1.90;;;27.80;45.50;;;;;;5046038;28;20039;-57